sensor_id;sensor_type;location;lat;lon;timestamp;P1;durP1;ratioP1;P2;durP2;ratioP2
71360;SDS011;59166;48.908;1.870;2023-10-08T00:02:29;10.70;;;3.13;;
71360;SDS011;59166;48.908;1.870;2023-10-08T00:07:29;8.27;;;2.80;;
71360;SDS011;59166;48.908;1.870;2023-10-08T00:12:30;11.57;;;3.15;;
71360;SDS011;59166;48.908;1.870;2023-10-08T00:17:32;12.50;;;3.83;;
71360;SDS011;59166;48.908;1.870;2023-10-08T00:22:33;9.25;;;3.40;;
71360;SDS011;59166;48.908;1.870;2023-10-08T00:27:33;8.50;;;3.20;;
71360;SDS011;59166;48.908;1.870;2023-10-08T00:32:35;11.13;;;3.43;;
71360;SDS011;59166;48.908;1.870;2023-10-08T00:37:36;10.13;;;3.35;;
71360;SDS011;59166;48.908;1.870;2023-10-08T00:42:36;8.17;;;3.20;;
71360;SDS011;59166;48.908;1.870;2023-10-08T00:47:38;10.53;;;3.23;;
71360;SDS011;59166;48.908;1.870;2023-10-08T00:52:39;9.52;;;3.50;;
71360;SDS011;59166;48.908;1.870;2023-10-08T00:57:40;9.38;;;3.40;;
71360;SDS011;59166;48.908;1.870;2023-10-08T01:02:43;8.67;;;3.20;;
71360;SDS011;59166;48.908;1.870;2023-10-08T01:07:44;9.77;;;3.70;;
71360;SDS011;59166;48.908;1.870;2023-10-08T01:12:46;11.38;;;3.67;;
71360;SDS011;59166;48.908;1.870;2023-10-08T01:17:48;10.30;;;3.40;;
71360;SDS011;59166;48.908;1.870;2023-10-08T01:22:51;10.30;;;3.67;;
71360;SDS011;59166;48.908;1.870;2023-10-08T01:27:55;10.88;;;3.45;;
71360;SDS011;59166;48.908;1.870;2023-10-08T01:32:55;8.17;;;3.33;;
71360;SDS011;59166;48.908;1.870;2023-10-08T01:37:57;9.88;;;3.50;;
71360;SDS011;59166;48.908;1.870;2023-10-08T01:42:58;9.90;;;3.57;;
71360;SDS011;59166;48.908;1.870;2023-10-08T01:47:58;11.20;;;3.30;;
71360;SDS011;59166;48.908;1.870;2023-10-08T01:53:01;9.93;;;3.40;;
71360;SDS011;59166;48.908;1.870;2023-10-08T01:58:01;9.43;;;3.20;;
71360;SDS011;59166;48.908;1.870;2023-10-08T02:03:02;9.83;;;3.43;;
71360;SDS011;59166;48.908;1.870;2023-10-08T02:08:05;8.80;;;3.15;;
71360;SDS011;59166;48.908;1.870;2023-10-08T02:13:06;8.57;;;3.20;;
71360;SDS011;59166;48.908;1.870;2023-10-08T02:18:07;9.80;;;3.10;;
71360;SDS011;59166;48.908;1.870;2023-10-08T02:23:09;11.00;;;3.77;;
71360;SDS011;59166;48.908;1.870;2023-10-08T02:28:10;11.03;;;3.90;;
71360;SDS011;59166;48.908;1.870;2023-10-08T02:33:11;9.68;;;3.53;;
71360;SDS011;59166;48.908;1.870;2023-10-08T02:38:17;10.77;;;3.70;;
71360;SDS011;59166;48.908;1.870;2023-10-08T02:43:18;11.65;;;4.38;;
71360;SDS011;59166;48.908;1.870;2023-10-08T02:48:18;11.50;;;4.50;;
71360;SDS011;59166;48.908;1.870;2023-10-08T02:53:20;11.45;;;4.45;;
71360;SDS011;59166;48.908;1.870;2023-10-08T02:58:21;9.60;;;4.17;;
71360;SDS011;59166;48.908;1.870;2023-10-08T03:03:22;11.97;;;4.60;;
71360;SDS011;59166;48.908;1.870;2023-10-08T03:08:24;9.40;;;3.90;;
71360;SDS011;59166;48.908;1.870;2023-10-08T03:13:24;10.93;;;3.73;;
71360;SDS011;59166;48.908;1.870;2023-10-08T03:18:25;9.93;;;3.50;;
71360;SDS011;59166;48.908;1.870;2023-10-08T03:23:27;9.50;;;3.50;;
71360;SDS011;59166;48.908;1.870;2023-10-08T03:28:29;10.80;;;3.60;;
71360;SDS011;59166;48.908;1.870;2023-10-08T03:33:30;9.60;;;3.58;;
71360;SDS011;59166;48.908;1.870;2023-10-08T03:38:33;9.30;;;3.80;;
71360;SDS011;59166;48.908;1.870;2023-10-08T03:43:34;11.30;;;3.70;;
71360;SDS011;59166;48.908;1.870;2023-10-08T03:48:35;10.38;;;3.88;;
71360;SDS011;59166;48.908;1.870;2023-10-08T03:53:37;12.00;;;4.40;;
71360;SDS011;59166;48.908;1.870;2023-10-08T03:58:38;12.43;;;5.10;;
71360;SDS011;59166;48.908;1.870;2023-10-08T04:03:39;14.32;;;5.10;;
71360;SDS011;59166;48.908;1.870;2023-10-08T04:08:41;12.33;;;4.87;;
71360;SDS011;59166;48.908;1.870;2023-10-08T04:13:42;11.38;;;5.00;;
71360;SDS011;59166;48.908;1.870;2023-10-08T04:18:43;11.93;;;5.30;;
71360;SDS011;59166;48.908;1.870;2023-10-08T04:23:45;12.85;;;5.20;;
71360;SDS011;59166;48.908;1.870;2023-10-08T04:28:46;14.20;;;4.70;;
71360;SDS011;59166;48.908;1.870;2023-10-08T04:33:47;13.30;;;5.37;;
71360;SDS011;59166;48.908;1.870;2023-10-08T04:38:50;11.32;;;5.00;;
71360;SDS011;59166;48.908;1.870;2023-10-08T04:43:50;14.83;;;5.17;;
71360;SDS011;59166;48.908;1.870;2023-10-08T04:48:51;13.53;;;5.03;;
71360;SDS011;59166;48.908;1.870;2023-10-08T04:53:53;11.03;;;4.50;;
71360;SDS011;59166;48.908;1.870;2023-10-08T04:58:54;11.43;;;4.50;;
71360;SDS011;59166;48.908;1.870;2023-10-08T05:03:55;13.50;;;5.57;;
71360;SDS011;59166;48.908;1.870;2023-10-08T05:08:58;11.00;;;4.90;;
71360;SDS011;59166;48.908;1.870;2023-10-08T05:13:59;12.68;;;5.13;;
71360;SDS011;59166;48.908;1.870;2023-10-08T05:18:59;19.17;;;5.47;;
71360;SDS011;59166;48.908;1.870;2023-10-08T05:24:02;10.82;;;4.45;;
71360;SDS011;59166;48.908;1.870;2023-10-08T05:29:03;10.23;;;4.50;;
71360;SDS011;59166;48.908;1.870;2023-10-08T05:34:04;9.67;;;3.83;;
71360;SDS011;59166;48.908;1.870;2023-10-08T05:39:06;9.43;;;3.90;;
71360;SDS011;59166;48.908;1.870;2023-10-08T05:44:07;10.10;;;4.00;;
71360;SDS011;59166;48.908;1.870;2023-10-08T05:49:08;9.43;;;3.60;;
71360;SDS011;59166;48.908;1.870;2023-10-08T05:54:10;9.20;;;4.00;;
71360;SDS011;59166;48.908;1.870;2023-10-08T05:59:12;10.93;;;3.90;;
71360;SDS011;59166;48.908;1.870;2023-10-08T06:04:13;10.50;;;4.10;;
71360;SDS011;59166;48.908;1.870;2023-10-08T06:09:15;10.00;;;3.83;;
71360;SDS011;59166;48.908;1.870;2023-10-08T06:14:16;11.90;;;3.83;;
71360;SDS011;59166;48.908;1.870;2023-10-08T06:19:17;10.82;;;4.10;;
71360;SDS011;59166;48.908;1.870;2023-10-08T06:24:19;10.63;;;4.53;;
71360;SDS011;59166;48.908;1.870;2023-10-08T06:29:20;15.23;;;5.57;;
71360;SDS011;59166;48.908;1.870;2023-10-08T06:34:21;12.50;;;5.18;;
71360;SDS011;59166;48.908;1.870;2023-10-08T06:39:24;15.77;;;5.73;;
71360;SDS011;59166;48.908;1.870;2023-10-08T06:44:25;13.13;;;5.65;;
71360;SDS011;59166;48.908;1.870;2023-10-08T06:49:27;13.00;;;5.93;;
71360;SDS011;59166;48.908;1.870;2023-10-08T06:54:32;14.90;;;5.97;;
71360;SDS011;59166;48.908;1.870;2023-10-08T07:05:26;11.60;;;5.00;;
71360;SDS011;59166;48.908;1.870;2023-10-08T07:10:29;12.30;;;5.20;;
71360;SDS011;59166;48.908;1.870;2023-10-08T07:15:30;12.00;;;5.37;;
71360;SDS011;59166;48.908;1.870;2023-10-08T07:20:31;12.63;;;5.22;;
71360;SDS011;59166;48.908;1.870;2023-10-08T07:25:33;12.73;;;5.33;;
71360;SDS011;59166;48.908;1.870;2023-10-08T07:30:36;10.38;;;4.43;;
71360;SDS011;59166;48.908;1.870;2023-10-08T07:35:37;10.60;;;4.22;;
71360;SDS011;59166;48.908;1.870;2023-10-08T07:40:39;13.20;;;4.40;;
71360;SDS011;59166;48.908;1.870;2023-10-08T07:45:40;11.20;;;4.35;;
71360;SDS011;59166;48.908;1.870;2023-10-08T07:50:41;11.07;;;4.40;;
71360;SDS011;59166;48.908;1.870;2023-10-08T07:55:45;11.32;;;4.15;;
71360;SDS011;59166;48.908;1.870;2023-10-08T08:00:47;9.98;;;3.92;;
71360;SDS011;59166;48.908;1.870;2023-10-08T08:05:48;10.20;;;3.43;;
71360;SDS011;59166;48.908;1.870;2023-10-08T08:10:50;9.73;;;4.05;;
71360;SDS011;59166;48.908;1.870;2023-10-08T08:15:51;11.37;;;4.03;;
71360;SDS011;59166;48.908;1.870;2023-10-08T08:20:52;9.20;;;3.85;;
71360;SDS011;59166;48.908;1.870;2023-10-08T08:25:54;9.43;;;3.90;;
71360;SDS011;59166;48.908;1.870;2023-10-08T08:30:55;9.55;;;3.78;;
71360;SDS011;59166;48.908;1.870;2023-10-08T08:36:02;11.05;;;4.20;;
71360;SDS011;59166;48.908;1.870;2023-10-08T08:41:05;11.57;;;4.10;;
71360;SDS011;59166;48.908;1.870;2023-10-08T08:46:05;10.70;;;4.10;;
71360;SDS011;59166;48.908;1.870;2023-10-08T08:51:06;11.45;;;4.18;;
71360;SDS011;59166;48.908;1.870;2023-10-08T08:56:09;10.90;;;4.00;;
71360;SDS011;59166;48.908;1.870;2023-10-08T09:01:11;9.27;;;3.90;;
71360;SDS011;59166;48.908;1.870;2023-10-08T09:06:14;10.00;;;3.63;;
71360;SDS011;59166;48.908;1.870;2023-10-08T09:11:16;12.57;;;4.23;;
71360;SDS011;59166;48.908;1.870;2023-10-08T09:16:17;8.82;;;3.60;;
71360;SDS011;59166;48.908;1.870;2023-10-08T09:21:19;10.77;;;3.85;;
71360;SDS011;59166;48.908;1.870;2023-10-08T09:26:23;9.47;;;3.60;;
71360;SDS011;59166;48.908;1.870;2023-10-08T09:31:25;9.35;;;3.72;;
71360;SDS011;59166;48.908;1.870;2023-10-08T09:36:25;10.93;;;3.77;;
71360;SDS011;59166;48.908;1.870;2023-10-08T09:41:28;11.77;;;3.60;;
71360;SDS011;59166;48.908;1.870;2023-10-08T09:46:30;8.73;;;3.63;;
71360;SDS011;59166;48.908;1.870;2023-10-08T09:51:31;10.83;;;3.53;;
71360;SDS011;59166;48.908;1.870;2023-10-08T09:56:39;9.60;;;3.53;;
71360;SDS011;59166;48.908;1.870;2023-10-08T10:01:41;8.80;;;3.53;;
71360;SDS011;59166;48.908;1.870;2023-10-08T10:06:43;9.02;;;3.60;;
71360;SDS011;59166;48.908;1.870;2023-10-08T10:11:47;10.00;;;3.53;;
71360;SDS011;59166;48.908;1.870;2023-10-08T10:16:48;10.40;;;3.80;;
71360;SDS011;59166;48.908;1.870;2023-10-08T10:22:10;9.60;;;3.80;;
71360;SDS011;59166;48.908;1.870;2023-10-08T10:27:13;11.33;;;3.60;;
71360;SDS011;59166;48.908;1.870;2023-10-08T10:32:15;9.15;;;3.30;;
71360;SDS011;59166;48.908;1.870;2023-10-08T10:37:16;9.85;;;3.53;;
71360;SDS011;59166;48.908;1.870;2023-10-08T10:42:21;10.97;;;3.83;;
71360;SDS011;59166;48.908;1.870;2023-10-08T10:47:23;9.73;;;3.55;;
71360;SDS011;59166;48.908;1.870;2023-10-08T10:52:24;12.55;;;3.90;;
71360;SDS011;59166;48.908;1.870;2023-10-08T10:57:28;8.70;;;3.47;;
71360;SDS011;59166;48.908;1.870;2023-10-08T11:02:29;9.13;;;3.60;;
71360;SDS011;59166;48.908;1.870;2023-10-08T11:07:33;8.25;;;3.13;;
71360;SDS011;59166;48.908;1.870;2023-10-08T11:12:39;9.02;;;3.05;;
71360;SDS011;59166;48.908;1.870;2023-10-08T11:17:41;10.93;;;3.47;;
71360;SDS011;59166;48.908;1.870;2023-10-08T11:22:44;8.75;;;3.20;;
71360;SDS011;59166;48.908;1.870;2023-10-08T11:27:46;8.07;;;2.80;;
71360;SDS011;59166;48.908;1.870;2023-10-08T11:32:47;10.13;;;2.90;;
71360;SDS011;59166;48.908;1.870;2023-10-08T11:37:48;8.85;;;2.80;;
71360;SDS011;59166;48.908;1.870;2023-10-08T11:42:50;9.80;;;2.80;;
71360;SDS011;59166;48.908;1.870;2023-10-08T11:47:51;10.65;;;2.95;;
71360;SDS011;59166;48.908;1.870;2023-10-08T11:52:52;10.25;;;2.78;;
71360;SDS011;59166;48.908;1.870;2023-10-08T11:57:55;9.77;;;2.70;;
71360;SDS011;59166;48.908;1.870;2023-10-08T12:02:56;11.52;;;2.70;;
71360;SDS011;59166;48.908;1.870;2023-10-08T12:07:56;8.27;;;2.27;;
71360;SDS011;59166;48.908;1.870;2023-10-08T12:12:59;7.38;;;2.05;;
71360;SDS011;59166;48.908;1.870;2023-10-08T12:18:00;7.70;;;2.17;;
71360;SDS011;59166;48.908;1.870;2023-10-08T12:23:01;7.93;;;2.07;;
71360;SDS011;59166;48.908;1.870;2023-10-08T12:28:04;10.15;;;1.90;;
71360;SDS011;59166;48.908;1.870;2023-10-08T12:33:06;7.38;;;1.95;;
71360;SDS011;59166;48.908;1.870;2023-10-08T12:38:10;6.90;;;2.03;;
71360;SDS011;59166;48.908;1.870;2023-10-08T12:43:17;6.28;;;1.95;;
71360;SDS011;59166;48.908;1.870;2023-10-08T12:48:19;7.28;;;2.00;;
71360;SDS011;59166;48.908;1.870;2023-10-08T12:53:20;7.63;;;1.90;;
71360;SDS011;59166;48.908;1.870;2023-10-08T12:58:23;8.18;;;1.85;;
71360;SDS011;59166;48.908;1.870;2023-10-08T13:03:25;9.63;;;2.22;;
71360;SDS011;59166;48.908;1.870;2023-10-08T13:08:26;8.90;;;2.00;;
71360;SDS011;59166;48.908;1.870;2023-10-08T13:13:29;10.32;;;2.03;;
71360;SDS011;59166;48.908;1.870;2023-10-08T13:18:30;8.77;;;2.03;;
71360;SDS011;59166;48.908;1.870;2023-10-08T13:23:35;8.90;;;2.40;;
71360;SDS011;59166;48.908;1.870;2023-10-08T13:28:41;11.97;;;2.20;;
71360;SDS011;59166;48.908;1.870;2023-10-08T13:33:43;10.63;;;2.28;;
71360;SDS011;59166;48.908;1.870;2023-10-08T13:38:44;8.80;;;2.20;;
71360;SDS011;59166;48.908;1.870;2023-10-08T13:43:47;10.47;;;2.27;;
71360;SDS011;59166;48.908;1.870;2023-10-08T13:48:49;11.32;;;2.30;;
71360;SDS011;59166;48.908;1.870;2023-10-08T13:53:50;9.63;;;2.00;;
71360;SDS011;59166;48.908;1.870;2023-10-08T13:58:54;11.53;;;2.30;;
71360;SDS011;59166;48.908;1.870;2023-10-08T14:03:55;9.93;;;2.15;;
71360;SDS011;59166;48.908;1.870;2023-10-08T14:08:56;9.48;;;2.10;;
71360;SDS011;59166;48.908;1.870;2023-10-08T14:13:59;10.75;;;2.45;;
71360;SDS011;59166;48.908;1.870;2023-10-08T14:19:03;11.33;;;2.50;;
71360;SDS011;59166;48.908;1.870;2023-10-08T14:24:04;12.30;;;2.70;;
71360;SDS011;59166;48.908;1.870;2023-10-08T14:29:07;10.98;;;2.50;;
71360;SDS011;59166;48.908;1.870;2023-10-08T14:34:08;12.03;;;2.40;;
71360;SDS011;59166;48.908;1.870;2023-10-08T14:39:09;9.65;;;2.28;;
71360;SDS011;59166;48.908;1.870;2023-10-08T14:44:12;10.57;;;2.33;;
71360;SDS011;59166;48.908;1.870;2023-10-08T14:49:13;9.10;;;2.03;;
71360;SDS011;59166;48.908;1.870;2023-10-08T14:54:14;9.95;;;2.28;;
71360;SDS011;59166;48.908;1.870;2023-10-08T14:59:17;11.93;;;2.38;;
71360;SDS011;59166;48.908;1.870;2023-10-08T15:04:19;9.13;;;2.07;;
71360;SDS011;59166;48.908;1.870;2023-10-08T15:09:20;16.63;;;2.60;;
71360;SDS011;59166;48.908;1.870;2023-10-08T15:14:23;10.40;;;2.50;;
71360;SDS011;59166;48.908;1.870;2023-10-08T15:19:24;13.57;;;3.25;;
71360;SDS011;59166;48.908;1.870;2023-10-08T15:24:25;12.50;;;2.60;;
71360;SDS011;59166;48.908;1.870;2023-10-08T15:29:28;13.02;;;2.53;;
71360;SDS011;59166;48.908;1.870;2023-10-08T15:34:29;12.35;;;2.63;;
71360;SDS011;59166;48.908;1.870;2023-10-08T15:39:29;11.27;;;2.60;;
71360;SDS011;59166;48.908;1.870;2023-10-08T15:44:32;9.13;;;2.72;;
71360;SDS011;59166;48.908;1.870;2023-10-08T15:49:33;10.20;;;2.40;;
71360;SDS011;59166;48.908;1.870;2023-10-08T15:54:34;9.05;;;2.13;;
71360;SDS011;59166;48.908;1.870;2023-10-08T15:59:37;15.10;;;2.30;;
71360;SDS011;59166;48.908;1.870;2023-10-08T16:04:39;13.00;;;2.50;;
71360;SDS011;59166;48.908;1.870;2023-10-08T16:09:49;12.73;;;2.30;;
71360;SDS011;59166;48.908;1.870;2023-10-08T16:14:51;16.25;;;2.20;;
71360;SDS011;59166;48.908;1.870;2023-10-08T16:19:52;11.65;;;2.55;;
71360;SDS011;59166;48.908;1.870;2023-10-08T16:24:53;8.73;;;2.23;;
71360;SDS011;59166;48.908;1.870;2023-10-08T16:29:56;10.80;;;2.40;;
71360;SDS011;59166;48.908;1.870;2023-10-08T16:34:57;9.87;;;2.30;;
71360;SDS011;59166;48.908;1.870;2023-10-08T16:39:57;11.40;;;2.55;;
71360;SDS011;59166;48.908;1.870;2023-10-08T16:45:00;12.65;;;2.75;;
71360;SDS011;59166;48.908;1.870;2023-10-08T16:50:01;9.63;;;2.30;;
71360;SDS011;59166;48.908;1.870;2023-10-08T16:55:03;11.43;;;2.38;;
71360;SDS011;59166;48.908;1.870;2023-10-08T17:00:09;11.85;;;2.72;;
71360;SDS011;59166;48.908;1.870;2023-10-08T17:05:11;9.10;;;2.10;;
71360;SDS011;59166;48.908;1.870;2023-10-08T17:10:12;10.30;;;2.45;;
71360;SDS011;59166;48.908;1.870;2023-10-08T17:15:15;8.63;;;2.30;;
71360;SDS011;59166;48.908;1.870;2023-10-08T17:20:16;14.70;;;2.50;;
71360;SDS011;59166;48.908;1.870;2023-10-08T17:25:17;11.82;;;2.50;;
71360;SDS011;59166;48.908;1.870;2023-10-08T17:30:20;11.82;;;2.40;;
71360;SDS011;59166;48.908;1.870;2023-10-08T17:35:21;9.23;;;2.10;;
71360;SDS011;59166;48.908;1.870;2023-10-08T17:40:21;14.65;;;2.55;;
71360;SDS011;59166;48.908;1.870;2023-10-08T17:45:29;9.73;;;2.28;;
71360;SDS011;59166;48.908;1.870;2023-10-08T17:50:37;11.57;;;2.83;;
71360;SDS011;59166;48.908;1.870;2023-10-08T17:55:38;12.63;;;2.47;;
71360;SDS011;59166;48.908;1.870;2023-10-08T18:00:41;12.37;;;2.57;;
71360;SDS011;59166;48.908;1.870;2023-10-08T18:05:42;11.02;;;2.20;;
71360;SDS011;59166;48.908;1.870;2023-10-08T18:10:43;12.43;;;2.67;;
71360;SDS011;59166;48.908;1.870;2023-10-08T18:26:43;10.35;;;2.40;;
71360;SDS011;59166;48.908;1.870;2023-10-08T18:37:41;11.90;;;2.50;;
71360;SDS011;59166;48.908;1.870;2023-10-08T18:42:42;13.20;;;2.70;;
71360;SDS011;59166;48.908;1.870;2023-10-08T18:47:53;9.60;;;2.27;;
71360;SDS011;59166;48.908;1.870;2023-10-08T18:53:11;14.50;;;2.50;;
71360;SDS011;59166;48.908;1.870;2023-10-08T19:20:40;14.18;;;2.60;;
71360;SDS011;59166;48.908;1.870;2023-10-08T19:25:47;12.27;;;2.70;;
71360;SDS011;59166;48.908;1.870;2023-10-08T19:30:55;9.48;;;2.65;;
71360;SDS011;59166;48.908;1.870;2023-10-08T19:36:01;14.85;;;3.00;;
71360;SDS011;59166;48.908;1.870;2023-10-08T20:20:55;13.33;;;2.50;;
71360;SDS011;59166;48.908;1.870;2023-10-08T20:25:56;10.55;;;2.50;;
71360;SDS011;59166;48.908;1.870;2023-10-08T20:30:57;11.30;;;2.78;;
71360;SDS011;59166;48.908;1.870;2023-10-08T20:35:59;12.63;;;2.70;;
71360;SDS011;59166;48.908;1.870;2023-10-08T20:41:00;13.98;;;2.58;;
71360;SDS011;59166;48.908;1.870;2023-10-08T20:46:04;11.30;;;2.60;;
71360;SDS011;59166;48.908;1.870;2023-10-08T20:51:09;14.40;;;2.85;;
71360;SDS011;59166;48.908;1.870;2023-10-08T20:56:10;10.30;;;2.88;;
71360;SDS011;59166;48.908;1.870;2023-10-08T21:01:12;12.57;;;3.10;;
71360;SDS011;59166;48.908;1.870;2023-10-08T21:06:21;11.30;;;3.13;;
71360;SDS011;59166;48.908;1.870;2023-10-08T21:11:25;14.45;;;3.38;;
71360;SDS011;59166;48.908;1.870;2023-10-08T21:21:42;10.73;;;3.10;;
71360;SDS011;59166;48.908;1.870;2023-10-08T21:26:43;12.80;;;3.10;;
71360;SDS011;59166;48.908;1.870;2023-10-08T21:31:44;12.52;;;3.08;;
71360;SDS011;59166;48.908;1.870;2023-10-08T21:42:17;9.55;;;2.90;;
71360;SDS011;59166;48.908;1.870;2023-10-08T21:47:41;12.65;;;2.97;;
71360;SDS011;59166;48.908;1.870;2023-10-08T21:52:55;11.23;;;2.87;;
71360;SDS011;59166;48.908;1.870;2023-10-08T21:58:17;9.73;;;2.50;;
71360;SDS011;59166;48.908;1.870;2023-10-08T22:09:01;17.70;;;4.57;;
71360;SDS011;59166;48.908;1.870;2023-10-08T22:14:24;15.67;;;4.17;;
71360;SDS011;59166;48.908;1.870;2023-10-08T22:19:25;13.68;;;3.60;;
71360;SDS011;59166;48.908;1.870;2023-10-08T22:24:28;14.00;;;3.90;;
71360;SDS011;59166;48.908;1.870;2023-10-08T22:29:29;14.70;;;3.10;;
71360;SDS011;59166;48.908;1.870;2023-10-08T22:34:29;9.90;;;2.53;;
71360;SDS011;59166;48.908;1.870;2023-10-08T22:39:31;10.40;;;2.50;;
71360;SDS011;59166;48.908;1.870;2023-10-08T22:44:32;9.75;;;2.50;;
71360;SDS011;59166;48.908;1.870;2023-10-08T22:49:33;8.93;;;2.67;;
71360;SDS011;59166;48.908;1.870;2023-10-08T22:54:35;9.33;;;2.30;;
71360;SDS011;59166;48.908;1.870;2023-10-08T22:59:36;8.38;;;2.42;;
71360;SDS011;59166;48.908;1.870;2023-10-08T23:04:37;12.33;;;2.50;;
71360;SDS011;59166;48.908;1.870;2023-10-08T23:09:39;12.15;;;2.60;;
71360;SDS011;59166;48.908;1.870;2023-10-08T23:14:39;15.10;;;2.37;;
71360;SDS011;59166;48.908;1.870;2023-10-08T23:19:40;12.80;;;2.23;;
71360;SDS011;59166;48.908;1.870;2023-10-08T23:24:42;13.47;;;2.80;;
71360;SDS011;59166;48.908;1.870;2023-10-08T23:29:43;14.43;;;3.13;;
71360;SDS011;59166;48.908;1.870;2023-10-08T23:34:43;15.47;;;3.50;;
71360;SDS011;59166;48.908;1.870;2023-10-08T23:39:45;18.30;;;3.87;;
71360;SDS011;59166;48.908;1.870;2023-10-08T23:44:46;31.42;;;6.68;;
71360;SDS011;59166;48.908;1.870;2023-10-08T23:49:46;29.27;;;5.33;;
71360;SDS011;59166;48.908;1.870;2023-10-08T23:54:49;22.33;;;4.90;;
71360;SDS011;59166;48.908;1.870;2023-10-08T23:59:49;16.73;;;3.90;;
